Time;durP1;ratioP1;P1;durP2;ratioP2;P2;SDS_P1;SDS_P2;PMS_P1;PMS_P2;Temp;Humidity;BMP_temperature;BMP_pressure;BME280_temperature;BME280_humidity;BME280_pressure;Samples;Min_cycle;Max_cycle;Signal;HPM_P1;HPM_P2
2023/04/14 00:01:43;;;;;;;0.20;0.20;;;5.00;99.90;;;;;;5089853;28;20050;-66
2023/04/14 00:04:10;;;;;;;12.80;0.85;;;4.90;99.90;;;;;;5091882;28;20040;-65
2023/04/14 00:06:36;;;;;;;1.35;0.55;;;4.90;99.90;;;;;;5091456;28;20149;-66
2023/04/14 00:09:02;;;;;;;6.22;0.90;;;4.90;99.90;;;;;;5073623;28;20503;-65
2023/04/14 00:11:28;;;;;;;0.45;0.45;;;4.90;99.90;;;;;;5073670;28;20048;-66
2023/04/14 00:13:55;;;;;;;0.90;0.40;;;4.80;99.90;;;;;;5090854;28;20052;-65
2023/04/14 00:16:21;;;;;;;1.85;0.20;;;4.90;99.90;;;;;;5090437;28;20044;-66
2023/04/14 00:18:46;;;;;;;0.10;0.10;;;4.90;99.90;;;;;;5073270;28;20117;-66
2023/04/14 00:21:12;;;;;;;0.32;0.30;;;4.80;99.90;;;;;;5090802;28;20048;-66
2023/04/14 00:23:38;;;;;;;0.13;0.13;;;4.80;99.90;;;;;;5091456;28;20032;-66
2023/04/14 00:26:04;;;;;;;0.50;0.50;;;4.80;99.90;;;;;;5091242;28;20048;-66
2023/04/14 00:28:30;;;;;;;1.40;0.95;;;4.90;99.90;;;;;;5072476;28;20040;-65
2023/04/14 00:30:56;;;;;;;0.90;0.70;;;4.80;99.90;;;;;;5089847;28;20056;-65
2023/04/14 00:33:21;;;;;;;0.35;0.30;;;4.80;99.90;;;;;;5091134;28;20051;-66
2023/04/14 00:35:47;;;;;;;1.38;0.98;;;4.70;99.90;;;;;;5090634;28;20044;-66
2023/04/14 00:38:13;;;;;;;0.43;0.43;;;4.70;99.90;;;;;;5089771;28;20044;-66
2023/04/14 00:40:39;;;;;;;0.20;0.20;;;4.60;99.90;;;;;;5089640;28;20036;-66
2023/04/14 00:43:05;;;;;;;0.30;0.30;;;4.60;99.90;;;;;;5089284;28;20044;-66
2023/04/14 00:45:31;;;;;;;0.30;0.30;;;4.50;99.90;;;;;;5089927;28;20051;-66
2023/04/14 00:47:57;;;;;;;4.85;1.50;;;4.50;99.90;;;;;;5089546;28;20111;-66
2023/04/14 00:50:23;;;;;;;0.65;0.47;;;4.40;99.90;;;;;;5088878;28;20071;-66
2023/04/14 00:52:51;;;;;;;0.25;0.25;;;4.30;99.90;;;;;;5089480;28;20521;-66
2023/04/14 00:55:21;;;;;;;0.68;0.50;;;4.30;99.90;;;;;;5072536;28;20046;-66
2023/04/14 00:57:47;;;;;;;0.93;0.77;;;4.20;99.90;;;;;;5088757;28;20481;-66
2023/04/14 01:00:14;;;;;;;0.85;0.40;;;4.20;99.90;;;;;;5089541;28;20439;-66
2023/04/14 01:02:40;;;;;;;1.05;0.60;;;4.30;99.90;;;;;;5088663;28;20136;-66
2023/04/14 01:05:06;;;;;;;0.70;0.30;;;4.30;99.90;;;;;;5089304;28;20067;-66
2023/04/14 01:07:32;;;;;;;0.20;0.20;;;4.30;99.90;;;;;;5089462;28;20036;-66
2023/04/14 01:09:59;;;;;;;0.90;0.80;;;4.30;99.90;;;;;;5089746;28;20084;-66
2023/04/14 01:12:50;;;;;;;0.80;0.50;;;4.20;99.90;;;;;;5072176;28;20052;-66
2023/04/14 01:15:46;;;;;;;0.63;0.30;;;4.20;99.90;;;;;;5089135;28;20043;-66
2023/04/14 01:18:15;;;;;;;0.20;0.20;;;4.10;99.90;;;;;;5089709;28;20040;-66
2023/04/14 01:20:43;;;;;;;0.20;0.20;;;4.10;99.90;;;;;;5090124;28;20079;-66
2023/04/14 01:23:20;;;;;;;0.35;0.22;;;4.00;99.90;;;;;;5089193;28;20475;-66
2023/04/14 01:26:16;;;;;;;0.30;0.30;;;4.00;99.90;;;;;;5089723;28;20040;-66
2023/04/14 01:29:18;;;;;;;0.85;0.52;;;3.90;99.90;;;;;;5088788;28;20075;-66
2023/04/14 01:31:47;;;;;;;0.80;0.20;;;3.90;99.90;;;;;;5088240;28;20112;-66
2023/04/14 01:34:13;;;;;;;0.80;0.75;;;3.80;99.90;;;;;;5071809;28;20040;-66
2023/04/14 01:36:45;;;;;;;1.20;0.93;;;3.80;99.90;;;;;;5090092;28;20036;-66
2023/04/14 01:39:15;;;;;;;1.00;0.43;;;3.90;99.90;;;;;;5089390;28;20078;-66
2023/04/14 01:41:46;;;;;;;1.95;0.68;;;3.90;99.90;;;;;;5088583;28;20398;-66
2023/04/14 01:44:13;;;;;;;3.78;0.80;;;3.80;99.90;;;;;;5088560;28;20055;-65
2023/04/14 01:46:41;;;;;;;0.32;0.20;;;3.80;99.90;;;;;;5087935;28;20036;-66
2023/04/14 01:49:08;;;;;;;0.20;0.20;;;3.80;99.90;;;;;;5088463;28;20599;-66
2023/04/14 01:51:35;;;;;;;0.55;0.50;;;3.80;99.90;;;;;;5088204;28;20044;-65
2023/04/14 01:54:03;;;;;;;0.10;0.10;;;3.70;99.90;;;;;;5089704;28;20405;-66
2023/04/14 01:56:29;;;;;;;0.35;0.22;;;3.70;99.90;;;;;;5089846;28;20112;-66
2023/04/14 01:58:57;;;;;;;0.73;0.63;;;3.70;99.90;;;;;;5087626;28;20036;-66
2023/04/14 02:01:25;;;;;;;0.45;0.32;;;3.60;99.90;;;;;;5088328;28;20040;-65
2023/04/14 02:03:51;;;;;;;0.75;0.30;;;3.70;99.90;;;;;;5089505;28;20532;-66
2023/04/14 02:06:18;;;;;;;2.00;0.77;;;3.60;99.90;;;;;;5087619;28;20044;-66
2023/04/14 02:08:45;;;;;;;0.90;0.50;;;3.60;99.90;;;;;;5087786;28;20070;-66
2023/04/14 02:11:13;;;;;;;1.20;0.38;;;3.60;99.90;;;;;;5089920;28;20048;-66
2023/04/14 02:13:42;;;;;;;2.10;0.50;;;3.60;99.90;;;;;;5089003;28;20093;-66
2023/04/14 02:16:10;;;;;;;0.20;0.20;;;3.60;99.90;;;;;;5089543;28;20044;-66
2023/04/14 02:18:39;;;;;;;0.77;0.52;;;3.60;99.90;;;;;;5088126;28;20036;-66
2023/04/14 02:21:05;;;;;;;0.22;0.22;;;3.60;99.90;;;;;;5087427;28;20405;-66
2023/04/14 02:23:31;;;;;;;0.30;0.30;;;3.60;99.90;;;;;;5089713;28;20123;-66
2023/04/14 02:26:09;;;;;;;0.65;0.35;;;3.50;99.90;;;;;;5088395;28;20063;-66
2023/04/14 02:28:42;;;;;;;2.17;0.88;;;3.40;99.90;;;;;;5087478;28;20122;-66
2023/04/14 02:31:11;;;;;;;0.20;0.20;;;3.40;99.90;;;;;;5088370;28;20044;-66
2023/04/14 02:33:38;;;;;;;1.15;0.50;;;3.40;99.90;;;;;;5070578;28;20044;-66
2023/04/14 02:36:31;;;;;;;3.83;0.52;;;3.40;99.90;;;;;;5087965;28;20546;-66
2023/04/14 02:39:16;;;;;;;0.38;0.38;;;3.40;99.90;;;;;;5089394;28;20071;-66
2023/04/14 02:41:44;;;;;;;0.30;0.30;;;3.40;99.90;;;;;;5087347;28;20044;-65
2023/04/14 02:44:27;;;;;;;0.40;0.40;;;3.40;99.90;;;;;;5089148;28;20040;-66
2023/04/14 02:47:08;;;;;;;0.68;0.50;;;3.40;99.90;;;;;;5087967;28;20040;-66
2023/04/14 02:49:41;;;;;;;0.55;0.55;;;3.40;99.90;;;;;;5088562;28;20539;-66
2023/04/14 02:52:11;;;;;;;1.02;0.60;;;3.40;99.90;;;;;;5088208;28;20036;-66
2023/04/14 02:54:39;;;;;;;0.38;0.30;;;3.40;99.90;;;;;;5087527;28;20097;-65
2023/04/14 02:57:05;;;;;;;0.20;0.20;;;3.40;99.90;;;;;;5087935;28;20507;-66
2023/04/14 02:59:32;;;;;;;0.70;0.52;;;3.30;99.90;;;;;;5071201;28;20074;-66
2023/04/14 03:02:01;;;;;;;1.00;0.90;;;3.30;99.90;;;;;;5087082;28;20485;-66
2023/04/14 03:04:32;;;;;;;0.88;0.52;;;3.30;99.90;;;;;;5088981;28;20128;-66
2023/04/14 03:06:59;;;;;;;8.85;0.80;;;3.20;99.90;;;;;;5071130;28;20476;-66
2023/04/14 03:09:26;;;;;;;0.50;0.40;;;3.30;99.90;;;;;;5088367;28;20079;-66
2023/04/14 03:11:54;;;;;;;0.98;0.82;;;3.20;99.90;;;;;;5089137;28;20048;-66
2023/04/14 03:14:21;;;;;;;0.20;0.20;;;3.20;99.90;;;;;;5089042;28;20040;-66
2023/04/14 03:16:50;;;;;;;0.52;0.38;;;3.20;99.90;;;;;;5087055;28;20044;-66
2023/04/14 03:19:21;;;;;;;0.45;0.38;;;3.20;99.90;;;;;;5088394;28;20096;-66
2023/04/14 03:21:49;;;;;;;0.30;0.30;;;3.20;99.90;;;;;;5074422;28;20067;-66
2023/04/14 03:24:22;;;;;;;2.92;0.40;;;3.20;99.90;;;;;;5090590;28;20126;-66
2023/04/14 03:26:50;;;;;;;1.38;0.70;;;3.20;99.90;;;;;;5092439;28;20119;-66
2023/04/14 03:29:20;;;;;;;1.42;0.40;;;3.20;99.90;;;;;;5091130;28;20089;-66
2023/04/14 03:31:47;;;;;;;0.30;0.30;;;3.20;99.90;;;;;;5073614;28;20050;-66
2023/04/14 03:34:15;;;;;;;0.30;0.30;;;3.20;99.90;;;;;;5091356;28;20090;-66
2023/04/14 03:36:42;;;;;;;0.30;0.30;;;3.20;99.90;;;;;;5091554;28;20040;-66
2023/04/14 03:39:13;;;;;;;0.45;0.45;;;3.20;99.90;;;;;;5092338;28;20047;-66
2023/04/14 03:41:46;;;;;;;0.88;0.50;;;3.20;99.90;;;;;;5092179;28;20378;-67
2023/04/14 03:44:15;;;;;;;0.20;0.20;;;3.30;99.90;;;;;;5091538;28;20387;-66
2023/04/14 03:46:41;;;;;;;0.70;0.60;;;3.30;99.90;;;;;;5090745;28;20494;-66
2023/04/14 03:49:10;;;;;;;1.48;0.40;;;3.20;99.90;;;;;;5090740;28;20717;-66
2023/04/14 03:51:39;;;;;;;4.28;0.60;;;3.20;99.90;;;;;;5091330;28;20493;-66
2023/04/14 03:54:06;;;;;;;0.40;0.38;;;3.20;99.90;;;;;;5090868;28;20401;-66
2023/04/14 03:56:37;;;;;;;0.95;0.60;;;3.20;99.90;;;;;;5091811;28;20150;-66
2023/04/14 03:59:03;;;;;;;;;;;3.20;99.90;;;;;;5091643;28;20040;-66
2023/04/14 04:01:31;;;;;;;1.65;0.28;;;3.10;99.90;;;;;;5090454;28;19923;-66
2023/04/14 04:03:59;;;;;;;0.95;0.43;;;3.10;99.90;;;;;;5092053;28;20141;-66
2023/04/14 04:06:26;;;;;;;2.95;1.20;;;3.10;99.90;;;;;;5089833;28;20040;-66
2023/04/14 04:08:54;;;;;;;0.43;0.43;;;3.00;99.90;;;;;;5090167;28;20058;-66
2023/04/14 04:11:21;;;;;;;0.50;0.38;;;3.00;99.90;;;;;;5090588;28;20074;-67
2023/04/14 04:13:48;;;;;;;5.70;0.95;;;3.00;99.90;;;;;;5089701;28;20055;-66
2023/04/14 04:16:15;;;;;;;2.92;0.85;;;3.00;99.90;;;;;;5090153;28;20048;-66
2023/04/14 04:18:45;;;;;;;1.95;0.45;;;2.90;99.90;;;;;;5090986;28;20048;-66
2023/04/14 04:21:13;;;;;;;0.55;0.55;;;3.00;99.90;;;;;;5091634;28;20042;-66
2023/04/14 04:23:42;;;;;;;0.63;0.60;;;3.00;99.90;;;;;;5090352;28;20044;-66
2023/04/14 04:26:08;;;;;;;2.08;1.08;;;3.00;99.90;;;;;;5089369;28;20513;-66
2023/04/14 04:28:35;;;;;;;0.60;0.50;;;2.90;99.90;;;;;;5090022;28;20036;-67
2023/04/14 04:31:03;;;;;;;0.65;0.50;;;2.90;99.90;;;;;;5072650;28;20297;-66
2023/04/14 04:33:30;;;;;;;0.30;0.30;;;2.90;99.90;;;;;;5089302;28;20554;-66
2023/04/14 04:35:56;;;;;;;1.58;0.98;;;2.90;99.90;;;;;;5089836;28;20121;-66
2023/04/14 04:38:22;;;;;;;0.43;0.40;;;2.90;99.90;;;;;;5091044;28;20051;-66
2023/04/14 04:40:48;;;;;;;1.08;0.88;;;3.00;99.90;;;;;;5072303;28;20058;-66
2023/04/14 04:43:17;;;;;;;0.63;0.63;;;2.90;99.90;;;;;;5089762;28;20496;-67
2023/04/14 04:45:49;;;;;;;0.70;0.70;;;3.00;99.90;;;;;;5090019;28;20040;-66
2023/04/14 04:48:14;;;;;;;0.38;0.20;;;3.00;99.90;;;;;;5089032;28;20063;-67
2023/04/14 04:50:41;;;;;;;0.40;0.40;;;3.00;99.90;;;;;;5089737;28;20046;-66
2023/04/14 04:53:06;;;;;;;0.57;0.50;;;2.90;99.90;;;;;;5072648;28;20079;-66
2023/04/14 04:55:32;;;;;;;1.13;0.70;;;2.90;99.90;;;;;;5089030;28;20071;-66
2023/04/14 04:57:58;;;;;;;2.17;1.30;;;2.90;99.90;;;;;;5089431;28;20076;-66
2023/04/14 05:00:25;;;;;;;1.73;0.73;;;2.90;99.90;;;;;;5090499;28;20044;-66
2023/04/14 05:02:51;;;;;;;1.67;0.50;;;2.90;99.90;;;;;;5088749;28;20051;-66
2023/04/14 05:05:17;;;;;;;1.42;0.70;;;2.90;99.90;;;;;;5072710;28;20035;-66
2023/04/14 05:07:42;;;;;;;0.60;0.43;;;2.90;99.90;;;;;;5088806;28;20551;-66
2023/04/14 05:10:08;;;;;;;0.65;0.57;;;2.90;99.90;;;;;;5089084;28;20448;-66
2023/04/14 05:12:34;;;;;;;0.98;0.63;;;2.90;99.90;;;;;;5072343;28;20571;-67
2023/04/14 05:15:00;;;;;;;2.70;0.63;;;2.90;99.90;;;;;;5088509;28;20048;-66
2023/04/14 05:17:26;;;;;;;0.60;0.60;;;2.90;99.90;;;;;;5089069;28;20035;-66
2023/04/14 05:19:51;;;;;;;0.85;0.52;;;3.00;99.90;;;;;;5090237;28;20418;-66
2023/04/14 05:22:17;;;;;;;0.40;0.40;;;3.00;99.90;;;;;;5089620;28;20443;-66
2023/04/14 05:24:50;;;;;;;0.47;0.45;;;3.10;99.90;;;;;;5089169;28;20558;-66
2023/04/14 05:27:16;;;;;;;1.08;0.52;;;3.10;99.90;;;;;;5089021;28;20036;-66
2023/04/14 05:29:42;;;;;;;0.70;0.40;;;3.20;99.90;;;;;;5088205;28;20101;-66
2023/04/14 05:32:08;;;;;;;0.43;0.43;;;3.20;99.90;;;;;;5088797;28;20039;-66
2023/04/14 05:34:33;;;;;;;11.95;1.17;;;3.20;99.90;;;;;;5089029;28;20046;-66
2023/04/14 05:37:00;;;;;;;0.38;0.38;;;3.30;99.90;;;;;;5088281;28;20401;-66
2023/04/14 05:39:25;;;;;;;2.28;1.20;;;3.30;99.90;;;;;;5088963;28;20051;-66
2023/04/14 05:41:52;;;;;;;0.30;0.30;;;3.30;99.90;;;;;;5087876;28;20413;-66
2023/04/14 05:44:18;;;;;;;0.77;0.70;;;3.40;99.90;;;;;;5089255;28;20536;-67
2023/04/14 05:46:44;;;;;;;0.20;0.20;;;3.40;99.90;;;;;;5088631;28;20040;-66
2023/04/14 05:49:09;;;;;;;0.20;0.20;;;3.50;99.90;;;;;;5089866;28;20042;-66
2023/04/14 05:51:35;;;;;;;0.47;0.35;;;3.50;99.90;;;;;;5088059;28;20127;-66
2023/04/14 05:54:01;;;;;;;2.88;1.35;;;3.70;99.90;;;;;;5088447;28;20406;-66
2023/04/14 05:56:27;;;;;;;2.40;0.63;;;3.80;99.90;;;;;;5088324;28;20051;-66
2023/04/14 05:58:54;;;;;;;0.45;0.28;;;3.90;99.90;;;;;;5087797;28;20126;-67
2023/04/14 06:01:20;;;;;;;0.88;0.68;;;4.20;99.90;;;;;;5090006;28;20542;-67
2023/04/14 06:03:46;;;;;;;1.33;0.82;;;4.50;99.90;;;;;;5070775;28;20052;-67
2023/04/14 06:06:11;;;;;;;1.17;0.68;;;4.80;99.90;;;;;;5088243;28;20042;-67
2023/04/14 06:08:37;;;;;;;1.88;0.70;;;5.00;99.90;;;;;;5087908;28;20036;-67
2023/04/14 06:11:03;;;;;;;1.75;0.68;;;5.30;99.90;;;;;;5089168;28;20052;-66
2023/04/14 06:13:30;;;;;;;2.22;1.25;;;5.50;99.90;;;;;;5088339;28;20048;-67
2023/04/14 06:15:57;;;;;;;2.55;1.10;;;5.90;99.90;;;;;;5087727;28;20051;-67
2023/04/14 06:18:22;;;;;;;1.10;0.93;;;6.30;99.90;;;;;;5089432;28;20093;-66
2023/04/14 06:20:48;;;;;;;3.20;1.42;;;6.70;99.90;;;;;;5088609;28;20047;-66
2023/04/14 06:23:14;;;;;;;1.33;0.88;;;7.00;99.90;;;;;;5083315;28;20042;-66
2023/04/14 06:25:40;;;;;;;0.52;0.52;;;7.20;99.90;;;;;;5109167;28;20040;-67
2023/04/14 06:28:07;;;;;;;2.35;1.25;;;7.40;99.90;;;;;;5109698;28;20119;-66
2023/04/14 06:30:33;;;;;;;4.30;2.22;;;7.70;99.90;;;;;;5109248;28;20492;-66
2023/04/14 06:33:03;;;;;;;5.00;1.67;;;8.00;99.90;;;;;;5091980;28;20051;-66
2023/04/14 06:35:30;;;;;;;1.40;1.20;;;8.20;99.90;;;;;;5110386;28;20043;-66
2023/04/14 06:37:56;;;;;;;1.77;1.35;;;8.40;99.90;;;;;;5109032;28;20171;-66
2023/04/14 06:40:22;;;;;;;3.88;1.33;;;8.60;99.90;;;;;;5108451;28;20072;-66
2023/04/14 06:42:47;;;;;;;1.90;1.33;;;8.80;99.90;;;;;;5108808;28;20035;-66
2023/04/14 06:45:13;;;;;;;1.35;0.88;;;9.10;99.90;;;;;;5092155;28;20038;-66
2023/04/14 06:47:39;;;;;;;2.13;0.75;;;9.20;99.90;;;;;;5108360;28;20172;-66
2023/04/14 06:50:05;;;;;;;1.85;1.13;;;9.50;99.90;;;;;;5110161;28;20036;-66
2023/04/14 06:52:31;;;;;;;1.92;0.88;;;9.70;99.90;;;;;;5108407;28;20040;-66
2023/04/14 06:54:57;;;;;;;3.35;1.08;;;9.80;99.90;;;;;;5112106;28;20427;-67
2023/04/14 06:57:22;;;;;;;0.40;0.40;;;10.00;99.90;;;;;;5112242;28;20032;-66
2023/04/14 06:59:48;;;;;;;1.48;0.85;;;10.20;99.90;;;;;;5094784;28;20092;-66
2023/04/14 07:02:14;;;;;;;1.73;0.60;;;10.30;99.90;;;;;;5111859;28;20126;-66
2023/04/14 07:04:40;;;;;;;0.85;0.47;;;10.30;99.90;;;;;;5112276;28;20034;-67
2023/04/14 07:07:06;;;;;;;1.13;0.52;;;10.30;99.90;;;;;;5112873;28;20027;-66
2023/04/14 07:09:31;;;;;;;2.42;0.70;;;10.20;99.90;;;;;;5111713;28;20416;-67
2023/04/14 07:11:57;;;;;;;2.38;0.80;;;10.10;99.90;;;;;;5112118;28;20100;-67
2023/04/14 07:14:24;;;;;;;2.47;1.05;;;10.00;99.90;;;;;;5111249;28;20464;-66
2023/04/14 07:16:52;;;;;;;0.82;0.52;;;10.00;99.90;;;;;;5112035;28;20074;-66
2023/04/14 07:19:19;;;;;;;1.02;0.52;;;10.00;99.90;;;;;;5111829;28;20040;-67
2023/04/14 07:21:45;;;;;;;1.17;0.77;;;10.00;99.90;;;;;;5110857;28;20043;-67
2023/04/14 07:24:11;;;;;;;3.47;0.95;;;10.10;99.90;;;;;;5112976;28;20081;-67
2023/04/14 07:26:37;;;;;;;2.58;0.85;;;10.20;99.90;;;;;;5111745;28;20071;-67
2023/04/14 07:29:03;;;;;;;2.28;0.85;;;10.20;99.90;;;;;;5112152;28;20144;-67
2023/04/14 07:31:32;;;;;;;0.93;0.63;;;10.30;99.90;;;;;;5111403;28;20262;-67
2023/04/14 07:33:58;;;;;;;1.17;1.02;;;10.20;99.90;;;;;;5094399;28;20040;-67
2023/04/14 07:36:24;;;;;;;0.88;0.43;;;10.20;99.90;;;;;;5112222;28;20050;-66
2023/04/14 07:38:50;;;;;;;1.73;0.82;;;10.30;99.90;;;;;;5094601;28;20075;-67
2023/04/14 07:41:17;;;;;;;1.60;1.02;;;10.50;99.90;;;;;;5111362;28;20040;-66
2023/04/14 07:43:43;;;;;;;2.65;0.60;;;10.50;99.90;;;;;;5112049;28;20038;-66
2023/04/14 07:46:08;;;;;;;1.88;0.60;;;10.70;99.90;;;;;;5111414;28;20039;-66
2023/04/14 07:48:36;;;;;;;0.80;0.52;;;10.90;99.90;;;;;;5110881;28;20035;-67
2023/04/14 07:51:03;;;;;;;0.95;0.60;;;11.20;99.90;;;;;;5094451;28;20375;-67
2023/04/14 07:53:30;;;;;;;1.33;0.57;;;11.30;99.90;;;;;;5111380;28;20048;-67
2023/04/14 07:55:57;;;;;;;1.13;0.50;;;11.50;99.90;;;;;;5093667;28;20062;-67
2023/04/14 07:58:22;;;;;;;1.70;0.90;;;11.80;99.90;;;;;;5110950;28;20057;-67
2023/04/14 08:00:48;;;;;;;0.70;0.50;;;12.20;99.90;;;;;;5093786;28;20126;-67
2023/04/14 08:03:15;;;;;;;1.02;0.47;;;12.60;99.90;;;;;;5111570;28;20047;-67
2023/04/14 08:05:41;;;;;;;1.50;0.80;;;12.90;99.90;;;;;;5110424;28;20382;-68
2023/04/14 08:08:08;;;;;;;1.38;0.65;;;13.20;99.90;;;;;;5112090;28;20051;-67
2023/04/14 08:10:36;;;;;;;1.98;0.88;;;13.40;99.90;;;;;;5093049;28;20055;-67
2023/04/14 08:13:02;;;;;;;2.97;0.80;;;13.50;99.90;;;;;;5110873;28;20108;-68
2023/04/14 08:15:27;;;;;;;0.55;0.32;;;13.70;99.90;;;;;;5112194;28;20520;-67
2023/04/14 08:17:53;;;;;;;0.52;0.45;;;13.80;99.90;;;;;;5093289;28;20136;-68
2023/04/14 08:20:19;;;;;;;0.88;0.85;;;13.80;99.90;;;;;;5110435;28;20040;-67
2023/04/14 08:22:45;;;;;;;4.57;0.93;;;13.80;99.90;;;;;;5110605;28;20039;-69
2023/04/14 08:25:11;;;;;;;0.45;0.40;;;13.80;99.90;;;;;;5110146;28;20032;-67
2023/04/14 08:27:37;;;;;;;1.85;0.65;;;13.80;99.90;;;;;;5110681;28;20092;-66
2023/04/14 08:30:04;;;;;;;1.23;0.75;;;13.80;99.90;;;;;;5110600;28;20372;-67
2023/04/14 08:32:30;;;;;;;1.23;0.43;;;13.80;99.90;;;;;;5110073;28;20450;-67
2023/04/14 08:34:56;;;;;;;2.72;1.17;;;13.90;99.90;;;;;;5110570;28;20067;-66
2023/04/14 08:37:22;;;;;;;0.93;0.60;;;14.00;99.90;;;;;;5110486;28;20488;-67
2023/04/14 08:39:48;;;;;;;1.17;0.52;;;14.20;99.90;;;;;;5109838;28;20054;-66
2023/04/14 08:42:15;;;;;;;3.55;0.52;;;14.30;99.90;;;;;;5109990;28;20187;-66
2023/04/14 08:44:41;;;;;;;1.05;0.63;;;14.50;99.90;;;;;;5110781;28;20032;-66
2023/04/14 08:47:08;;;;;;;2.20;0.93;;;14.60;99.90;;;;;;5110105;28;20036;-66
2023/04/14 08:49:43;;;;;;;1.92;1.13;;;14.70;99.90;;;;;;5093041;28;20488;-67
2023/04/14 08:52:13;;;;;;;7.53;1.40;;;14.80;99.90;;;;;;5109664;28;20082;-66
2023/04/14 08:54:42;;;;;;;1.48;0.57;;;14.90;99.90;;;;;;5111259;28;20134;-66
2023/04/14 08:57:10;;;;;;;0.70;0.30;;;15.10;99.90;;;;;;5110017;28;20493;-67
2023/04/14 08:59:37;;;;;;;2.05;0.80;;;15.40;99.90;;;;;;5110688;28;20054;-66
2023/04/14 09:02:06;;;;;;;3.17;1.17;;;15.40;99.90;;;;;;5109792;28;20040;-67
2023/04/14 09:04:34;;;;;;;3.15;0.60;;;15.30;99.90;;;;;;5110072;28;20046;-66
2023/04/14 09:07:01;;;;;;;2.03;0.57;;;15.20;99.90;;;;;;5109108;28;20050;-67
2023/04/14 09:09:29;;;;;;;1.38;0.55;;;15.30;99.90;;;;;;5110592;28;20052;-66
2023/04/14 09:11:56;;;;;;;1.67;0.85;;;15.50;99.90;;;;;;5092540;28;20047;-66
2023/04/14 09:14:23;;;;;;;2.70;0.43;;;15.80;99.90;;;;;;5109169;28;20389;-66
2023/04/14 09:16:52;;;;;;;0.40;0.38;;;16.00;99.90;;;;;;5109843;28;20035;-66
2023/04/14 09:19:20;;;;;;;1.25;0.45;;;16.10;99.90;;;;;;5093775;28;20046;-68
2023/04/14 09:21:46;;;;;;;0.95;0.57;;;16.20;99.90;;;;;;5109891;28;20126;-66
2023/04/14 09:24:11;;;;;;;0.22;0.20;;;16.30;99.90;;;;;;5111661;28;20141;-66
2023/04/14 09:26:37;;;;;;;0.50;0.30;;;16.30;99.70;;;;;;5109792;28;20100;-68
2023/04/14 09:29:03;;;;;;;0.80;0.20;;;16.30;99.60;;;;;;5110536;28;20118;-66
2023/04/14 09:31:29;;;;;;;1.13;0.52;;;16.30;99.80;;;;;;5093582;28;20656;-67
2023/04/14 09:33:56;;;;;;;0.20;0.13;;;16.30;99.90;;;;;;5109703;28;20043;-65
2023/04/14 09:36:23;;;;;;;1.50;0.35;;;16.40;99.10;;;;;;5110412;28;20047;-67
2023/04/14 09:38:50;;;;;;;2.65;0.50;;;16.40;99.10;;;;;;5110189;28;20200;-66
2023/04/14 09:41:17;;;;;;;0.40;0.13;;;16.40;99.00;;;;;;5109572;28;20126;-67
2023/04/14 09:43:44;;;;;;;2.47;0.17;;;16.60;99.00;;;;;;5111343;28;20038;-66
2023/04/14 09:46:10;;;;;;;0.40;0.20;;;16.80;98.40;;;;;;5110134;28;20043;-67
2023/04/14 09:48:55;;;;;;;1.38;0.45;;;16.80;97.90;;;;;;5109736;28;20039;-66
2023/04/14 09:51:29;;;;;;;0.10;0.10;;;16.90;98.10;;;;;;5111470;28;20044;-68
2023/04/14 09:54:03;;;;;;;0.57;0.30;;;17.10;99.30;;;;;;5111355;28;20086;-67
2023/04/14 09:56:29;;;;;;;2.35;0.40;;;16.90;99.00;;;;;;5110490;28;20068;-65
2023/04/14 09:58:59;;;;;;;0.40;0.30;;;16.80;97.80;;;;;;5109736;28;20171;-65
2023/04/14 10:01:32;;;;;;;0.50;0.35;;;16.60;97.80;;;;;;5092945;28;20035;-65
2023/04/14 10:04:00;;;;;;;2.83;0.85;;;16.10;96.70;;;;;;5111309;28;20043;-66
2023/04/14 10:06:25;;;;;;;1.80;0.80;;;15.40;96.20;;;;;;5109816;28;20043;-65
2023/04/14 10:08:55;;;;;;;0.63;0.40;;;15.20;97.90;;;;;;5108957;28;20103;-65
2023/04/14 10:11:31;;;;;;;4.30;0.80;;;15.60;98.00;;;;;;5110029;28;20043;-66
2023/04/14 10:14:04;;;;;;;2.40;0.95;;;16.10;98.90;;;;;;5109692;28;20039;-67
2023/04/14 10:16:30;;;;;;;0.63;0.45;;;16.80;99.30;;;;;;5092236;28;20043;-66
2023/04/14 10:18:57;;;;;;;2.28;0.70;;;17.40;98.00;;;;;;5108559;28;20035;-68
2023/04/14 10:21:23;;;;;;;1.30;0.50;;;17.60;96.40;;;;;;5109778;28;20051;-66
2023/04/14 10:23:50;;;;;;;1.85;0.60;;;17.70;94.80;;;;;;5109310;28;20036;-65
2023/04/14 10:26:17;;;;;;;1.10;0.57;;;17.60;94.60;;;;;;5108762;28;20036;-65
2023/04/14 10:28:45;;;;;;;1.85;0.93;;;17.70;95.50;;;;;;5110893;28;20044;-65
2023/04/14 10:31:30;;;;;;;0.73;0.35;;;17.50;92.60;;;;;;5113465;28;20131;-66
2023/04/14 10:33:57;;;;;;;1.10;0.40;;;16.90;94.50;;;;;;5113758;28;20524;-66
2023/04/14 10:36:28;;;;;;;0.22;0.22;;;17.00;96.50;;;;;;5114009;28;20392;-65
2023/04/14 10:39:02;;;;;;;2.22;0.47;;;17.40;94.60;;;;;;5113018;28;20040;-66
2023/04/14 10:41:45;;;;;;;1.15;0.50;;;17.50;93.70;;;;;;5115073;28;20047;-65
2023/04/14 10:44:31;;;;;;;2.38;0.88;;;17.60;93.60;;;;;;5114451;28;20104;-66
2023/04/14 10:47:01;;;;;;;0.85;0.20;;;17.70;93.70;;;;;;5112762;28;20360;-66
2023/04/14 10:49:35;;;;;;;1.58;0.65;;;17.70;92.50;;;;;;5114664;28;20043;-65
2023/04/14 10:52:03;;;;;;;0.90;0.20;;;17.60;91.60;;;;;;5095979;28;20126;-66
2023/04/14 10:54:50;;;;;;;0.52;0.40;;;17.60;92.60;;;;;;5113534;28;20036;-66
2023/04/14 10:57:17;;;;;;;1.83;0.40;;;17.90;93.20;;;;;;5113470;28;20040;-66
2023/04/14 10:59:46;;;;;;;2.90;0.75;;;17.60;92.80;;;;;;5112815;28;20044;-65
2023/04/14 11:02:28;;;;;;;0.80;0.50;;;17.40;92.90;;;;;;5112865;28;20093;-66
2023/04/14 11:05:05;;;;;;;1.65;0.77;;;17.40;92.80;;;;;;5094279;28;20039;-66
2023/04/14 11:07:54;;;;;;;0.75;0.32;;;17.10;92.30;;;;;;5114386;28;20118;-65
2023/04/14 11:10:20;;;;;;;1.52;0.30;;;16.40;91.60;;;;;;5112722;28;20058;-66
2023/04/14 11:12:48;;;;;;;0.52;0.30;;;15.70;91.00;;;;;;5112351;28;20040;-66
2023/04/14 11:15:14;;;;;;;0.80;0.50;;;15.50;92.30;;;;;;5114244;28;20073;-65
2023/04/14 11:17:44;;;;;;;0.70;0.38;;;15.80;93.10;;;;;;5112926;28;20050;-66
2023/04/14 11:20:17;;;;;;;0.77;0.47;;;15.90;93.10;;;;;;5112497;28;20380;-65
2023/04/14 11:22:44;;;;;;;0.20;0.10;;;15.90;93.80;;;;;;5114045;28;20031;-66
2023/04/14 11:25:15;;;;;;;0.47;0.32;;;15.80;94.50;;;;;;5112777;28;20542;-66
2023/04/14 11:27:42;;;;;;;0.50;0.50;;;16.10;95.60;;;;;;5111997;28;20512;-66
2023/04/14 11:30:16;;;;;;;2.55;0.63;;;16.20;94.20;;;;;;5114079;28;20404;-66
2023/04/14 11:32:53;;;;;;;0.85;0.30;;;16.00;94.00;;;;;;5111639;28;20036;-65
2023/04/14 11:35:21;;;;;;;0.30;0.20;;;15.90;94.50;;;;;;5112403;28;20036;-65
2023/04/14 11:37:47;;;;;;;0.30;0.30;;;15.80;94.40;;;;;;5112530;28;20050;-66
2023/04/14 11:40:24;;;;;;;0.47;0.30;;;15.90;94.60;;;;;;5110603;28;20043;-66
2023/04/14 11:42:55;;;;;;;1.33;0.40;;;16.10;93.90;;;;;;5112735;28;20122;-66
2023/04/14 11:45:26;;;;;;;0.43;0.30;;;16.70;95.10;;;;;;5113574;28;20668;-66
2023/04/14 11:48:02;;;;;;;1.08;0.52;;;16.90;93.50;;;;;;5112923;28;20089;-66
2023/04/14 11:50:31;;;;;;;2.08;0.63;;;16.40;92.00;;;;;;5095426;28;20043;-66
2023/04/14 11:53:01;;;;;;;2.05;0.60;;;16.00;92.70;;;;;;5111978;28;20077;-65
2023/04/14 11:55:28;;;;;;;0.93;0.43;;;15.60;93.80;;;;;;5111237;28;20075;-66
2023/04/14 11:57:55;;;;;;;1.27;0.40;;;15.70;94.60;;;;;;5113076;28;20092;-66
2023/04/14 12:00:23;;;;;;;3.22;0.60;;;16.20;94.10;;;;;;5111430;28;20100;-65
2023/04/14 12:02:49;;;;;;;3.03;0.40;;;16.60;94.10;;;;;;5111565;28;20097;-66
2023/04/14 12:05:21;;;;;;;2.35;0.30;;;16.90;93.50;;;;;;5113528;28;20067;-65
2023/04/14 12:07:48;;;;;;;2.35;0.77;;;17.00;94.20;;;;;;5111313;28;20044;-66
2023/04/14 12:10:15;;;;;;;0.35;0.28;;;17.20;94.50;;;;;;5111812;28;20060;-65
2023/04/14 12:12:40;;;;;;;0.80;0.40;;;17.30;93.50;;;;;;5112033;28;20035;-66
2023/04/14 12:15:13;;;;;;;0.40;0.20;;;17.30;92.40;;;;;;5094575;28;20390;-66
2023/04/14 12:17:40;;;;;;;0.40;0.30;;;17.30;93.00;;;;;;5090516;28;20509;-66
2023/04/14 12:20:13;;;;;;;0.75;0.20;;;17.30;93.30;;;;;;5091145;28;20078;-65
2023/04/14 12:22:39;;;;;;;0.88;0.40;;;17.30;93.40;;;;;;5092005;28;20039;-65
2023/04/14 12:25:10;;;;;;;0.80;0.40;;;17.50;93.00;;;;;;5092365;28;20044;-66
2023/04/14 12:27:36;;;;;;;0.45;0.35;;;17.50;91.80;;;;;;5092404;28;20122;-65
2023/04/14 12:30:04;;;;;;;2.47;1.02;;;17.30;91.70;;;;;;5091720;28;20063;-65
2023/04/14 12:32:38;;;;;;;0.60;0.38;;;17.30;90.40;;;;;;5090973;28;20104;-65
2023/04/14 12:35:05;;;;;;;1.17;0.60;;;17.30;90.30;;;;;;5091140;28;20453;-65
2023/04/14 12:37:33;;;;;;;0.52;0.40;;;17.10;89.70;;;;;;5090575;28;20098;-66
2023/04/14 12:40:00;;;;;;;0.88;0.30;;;17.00;90.70;;;;;;5090717;28;20466;-64
2023/04/14 12:42:29;;;;;;;2.30;0.60;;;17.10;91.00;;;;;;5090973;28;20036;-66
2023/04/14 12:44:59;;;;;;;0.43;0.30;;;17.20;90.70;;;;;;5073222;28;20051;-66
2023/04/14 12:47:27;;;;;;;0.90;0.30;;;17.40;90.00;;;;;;5074154;28;20122;-65
2023/04/14 12:49:55;;;;;;;0.93;0.40;;;17.40;90.40;;;;;;5073509;28;20039;-66
2023/04/14 12:52:39;;;;;;;1.20;0.47;;;17.40;90.10;;;;;;5091517;28;20048;-66
2023/04/14 12:55:06;;;;;;;2.75;0.60;;;17.30;90.40;;;;;;5090559;28;20389;-65
2023/04/14 12:57:33;;;;;;;0.32;0.22;;;17.20;90.40;;;;;;5091344;28;20113;-66
2023/04/14 13:00:00;;;;;;;1.70;0.30;;;17.00;90.80;;;;;;5073501;28;20131;-66